createdAt,value
2019-03-23T00:00:06.722Z,8.90
2019-03-23T00:01:06.717Z,8.20
2019-03-23T00:02:06.742Z,6.80
2019-03-23T00:03:06.705Z,8.60
2019-03-23T00:04:06.724Z,7.30
2019-03-23T00:05:06.693Z,7.50
2019-03-23T00:06:06.684Z,7.60
2019-03-23T00:07:06.893Z,8.10
2019-03-23T00:08:06.674Z,7.20
2019-03-23T00:09:06.668Z,7.10
2019-03-23T00:10:06.660Z,8.30
2019-03-23T00:11:06.665Z,7.70
2019-03-23T00:12:06.657Z,7.60
2019-03-23T00:13:06.656Z,8.40
2019-03-23T00:14:06.675Z,8.40
2019-03-23T00:15:06.641Z,8.40
2019-03-23T00:16:06.684Z,7.60
2019-03-23T00:17:06.629Z,7.90
2019-03-23T00:18:06.620Z,8.60
2019-03-23T00:19:06.608Z,8.30
2019-03-23T00:20:06.603Z,8.40
2019-03-23T00:21:06.612Z,8.00
2019-03-23T00:22:06.594Z,7.70
2019-03-23T00:23:06.592Z,6.90
2019-03-23T00:24:06.596Z,7.70
2019-03-23T00:25:06.583Z,7.70
2019-03-23T00:26:06.577Z,7.10
2019-03-23T00:27:06.563Z,7.40
2019-03-23T00:28:06.565Z,7.80
2019-03-23T00:29:06.569Z,7.50
2019-03-23T00:30:06.547Z,7.40
2019-03-23T00:31:06.543Z,7.60
2019-03-23T00:32:06.564Z,8.00
2019-03-23T00:33:06.529Z,7.70
2019-03-23T00:34:06.529Z,8.30
2019-03-23T00:35:06.720Z,7.50
2019-03-23T00:36:06.514Z,7.80
2019-03-23T00:37:06.707Z,8.10
2019-03-23T00:38:06.489Z,7.90
2019-03-23T00:39:06.489Z,7.00
2019-03-23T00:40:06.695Z,6.70
2019-03-23T00:41:06.490Z,7.20
2019-03-23T00:42:06.500Z,9.20
2019-03-23T00:43:06.481Z,6.70
2019-03-23T00:44:07.486Z,6.30
2019-03-23T00:45:06.510Z,7.10
2019-03-23T00:46:06.445Z,7.10
2019-03-23T00:47:06.449Z,9.40
2019-03-23T00:48:06.448Z,7.30
2019-03-23T00:49:06.644Z,6.70
2019-03-23T00:50:06.656Z,8.20
2019-03-23T00:51:06.425Z,9.60
2019-03-23T00:52:06.610Z,8.70
2019-03-23T00:53:06.415Z,8.80
2019-03-23T00:54:06.395Z,9.40
2019-03-23T00:55:06.385Z,8.80
2019-03-23T00:56:06.384Z,9.90
2019-03-23T00:57:06.581Z,9.70
2019-03-23T00:58:06.600Z,8.70
2019-03-23T00:59:06.374Z,9.80
2019-03-23T01:00:06.363Z,9.30
2019-03-23T01:01:06.347Z,8.40
2019-03-23T01:02:06.347Z,8.30
2019-03-23T01:03:06.339Z,8.40
2019-03-23T01:04:06.333Z,9.40
2019-03-23T01:05:06.536Z,9.10
2019-03-23T01:06:06.326Z,10.20
2019-03-23T01:07:06.530Z,10.00
2019-03-23T01:08:06.303Z,10.20
2019-03-23T01:09:06.303Z,9.90
2019-03-23T01:10:06.293Z,9.60
2019-03-23T01:11:06.528Z,8.20
2019-03-23T01:12:06.493Z,8.00
2019-03-23T01:13:06.313Z,9.00
2019-03-23T01:14:06.267Z,9.10
2019-03-23T01:15:06.261Z,9.40
2019-03-23T01:16:06.264Z,9.60
2019-03-23T01:17:06.247Z,9.80
2019-03-23T01:18:06.445Z,9.70
2019-03-23T01:19:06.252Z,9.50
2019-03-23T01:20:06.233Z,10.30
2019-03-23T01:21:06.224Z,10.00
2019-03-23T01:22:06.231Z,11.10
2019-03-23T01:23:06.217Z,13.60
2019-03-23T01:24:06.198Z,12.30
2019-03-23T01:25:06.410Z,13.10
2019-03-23T01:26:06.457Z,13.50
2019-03-23T01:27:06.196Z,13.30
2019-03-23T01:28:06.180Z,13.50
2019-03-23T01:29:06.388Z,13.20
2019-03-23T01:30:06.162Z,13.80
2019-03-23T01:31:06.150Z,13.30
2019-03-23T01:32:06.165Z,11.50
2019-03-23T01:33:06.155Z,16.70
2019-03-23T01:34:06.151Z,14.20
2019-03-23T01:35:06.142Z,14.80
2019-03-23T01:36:06.329Z,21.10
2019-03-23T01:37:06.121Z,36.40
2019-03-23T01:38:06.312Z,24.00
2019-03-23T01:39:06.121Z,62.70
2019-03-23T01:40:06.107Z,74.00
2019-03-23T01:41:06.086Z,77.50
2019-03-23T01:42:06.084Z,74.80
2019-03-23T01:43:06.079Z,74.00
2019-03-23T01:44:06.074Z,69.90
2019-03-23T01:45:06.077Z,71.40
2019-03-23T01:46:06.067Z,67.50
2019-03-23T01:47:06.064Z,72.20
2019-03-23T01:48:06.049Z,63.70
2019-03-23T01:49:06.051Z,67.70
2019-03-23T01:50:06.029Z,63.50
2019-03-23T01:51:06.035Z,65.70
2019-03-23T01:52:06.047Z,63.60
2019-03-23T01:53:06.024Z,65.50
2019-03-23T01:54:06.025Z,69.50
2019-03-23T01:55:05.999Z,64.70
2019-03-23T01:56:06.005Z,61.00
2019-03-23T01:57:05.990Z,67.00
2019-03-23T01:58:05.977Z,63.10
2019-03-23T01:59:05.985Z,73.20
2019-03-23T02:00:05.965Z,79.40
2019-03-23T02:01:05.956Z,83.50
2019-03-23T02:02:05.952Z,82.20
2019-03-23T02:03:05.979Z,80.60
2019-03-23T02:04:05.965Z,83.20
2019-03-23T02:05:05.955Z,89.80
2019-03-23T02:06:05.930Z,91.70
2019-03-23T02:07:13.650Z,93.60
2019-03-23T02:08:05.917Z,91.40
2019-03-23T02:09:05.920Z,100.30
2019-03-23T02:10:05.914Z,99.50
2019-03-23T02:11:05.912Z,96.50
2019-03-23T02:12:05.903Z,98.00
2019-03-23T02:13:05.889Z,105.20
2019-03-23T02:14:05.881Z,108.90
2019-03-23T02:15:05.874Z,103.40
2019-03-23T02:16:05.879Z,105.60
2019-03-23T02:17:05.872Z,107.20
2019-03-23T02:18:05.863Z,109.00
2019-03-23T02:19:05.852Z,110.70
2019-03-23T02:20:05.840Z,110.70
2019-03-23T02:21:05.864Z,107.90
2019-03-23T02:22:05.824Z,104.70
2019-03-23T02:23:05.824Z,120.60
2019-03-23T02:24:05.826Z,121.10
2019-03-23T02:25:05.816Z,125.00
2019-03-23T02:26:05.802Z,134.60
2019-03-23T02:27:05.793Z,142.30
2019-03-23T02:28:05.793Z,145.80
2019-03-23T02:29:05.789Z,159.10
2019-03-23T02:30:05.789Z,165.80
2019-03-23T02:31:07.322Z,175.30
2019-03-23T02:32:05.780Z,181.80
2019-03-23T02:33:05.781Z,181.70
2019-03-23T02:34:05.785Z,195.70
2019-03-23T02:35:05.742Z,205.20
2019-03-23T02:36:05.739Z,210.60
2019-03-23T02:37:05.752Z,218.90
2019-03-23T02:38:05.727Z,228.00
2019-03-23T02:39:05.723Z,230.60
2019-03-23T02:40:05.729Z,236.90
2019-03-23T02:41:05.719Z,245.80
2019-03-23T02:42:05.697Z,250.50
2019-03-23T02:43:05.701Z,258.70
2019-03-23T02:44:05.683Z,253.40
2019-03-23T02:45:05.677Z,259.80
2019-03-23T02:46:05.672Z,252.40
2019-03-23T02:47:05.671Z,255.30
2019-03-23T02:48:05.684Z,242.30
2019-03-23T02:49:05.673Z,258.80
2019-03-23T02:50:05.644Z,244.40
2019-03-23T02:51:05.637Z,257.90
2019-03-23T02:52:05.631Z,253.10
2019-03-23T02:53:05.637Z,243.30
2019-03-23T02:54:05.629Z,246.40
2019-03-23T02:55:05.633Z,256.00
2019-03-23T02:56:05.609Z,256.00
2019-03-23T02:57:05.594Z,268.10
2019-03-23T02:58:05.621Z,259.10
2019-03-23T02:59:05.592Z,272.20
2019-03-23T03:00:05.593Z,265.60
2019-03-23T03:01:05.573Z,268.10
2019-03-23T03:02:05.565Z,268.70
2019-03-23T03:03:05.560Z,265.80
2019-03-23T03:04:05.546Z,271.70
2019-03-23T03:05:05.552Z,280.00
2019-03-23T03:06:05.568Z,280.30
2019-03-23T03:07:05.617Z,290.20
2019-03-23T03:08:05.525Z,282.00
2019-03-23T03:09:05.525Z,282.20
2019-03-23T03:10:05.513Z,284.00
2019-03-23T03:11:05.509Z,286.70
2019-03-23T03:12:05.531Z,275.30
2019-03-23T03:13:05.501Z,291.90
2019-03-23T03:14:05.489Z,276.80
2019-03-23T03:15:05.497Z,301.40
2019-03-23T03:16:05.474Z,302.60
2019-03-23T03:17:05.474Z,291.20
2019-03-23T03:18:05.455Z,289.70
2019-03-23T03:19:05.457Z,285.30
2019-03-23T03:20:05.575Z,283.20
2019-03-23T03:21:05.433Z,308.10
2019-03-23T03:22:05.446Z,294.20
2019-03-23T03:23:05.448Z,304.70
2019-03-23T03:24:05.430Z,307.70
2019-03-23T03:25:05.420Z,311.30
2019-03-23T03:26:05.416Z,301.70
2019-03-23T03:27:05.400Z,301.90
2019-03-23T03:28:05.387Z,298.80
2019-03-23T03:29:05.395Z,305.80
2019-03-23T03:30:05.381Z,321.70
2019-03-23T03:31:05.421Z,321.50
2019-03-23T03:32:05.386Z,318.40
2019-03-23T03:33:05.358Z,316.40
2019-03-23T03:34:05.350Z,311.20
2019-03-23T03:35:05.345Z,317.10
2019-03-23T03:36:05.333Z,302.80
2019-03-23T03:37:05.334Z,276.30
2019-03-23T03:38:05.335Z,284.20
2019-03-23T03:39:05.332Z,298.80
2019-03-23T03:40:05.311Z,297.70
2019-03-23T03:41:05.317Z,299.60
2019-03-23T03:42:05.301Z,306.10
2019-03-23T03:43:05.310Z,308.60
2019-03-23T03:44:05.287Z,305.10
2019-03-23T03:45:05.295Z,302.20
2019-03-23T03:46:05.276Z,293.20
2019-03-23T03:47:05.257Z,298.10
2019-03-23T03:48:05.252Z,298.30
2019-03-23T03:49:12.203Z,288.80
2019-03-23T03:50:05.240Z,282.30
2019-03-23T03:51:05.267Z,288.40
2019-03-23T03:52:05.229Z,283.90
2019-03-23T03:53:05.232Z,277.00
2019-03-23T03:54:05.215Z,293.00
2019-03-23T03:55:05.222Z,294.80
2019-03-23T03:56:05.198Z,288.90
2019-03-23T03:57:05.191Z,285.10
2019-03-23T03:58:05.212Z,303.00
2019-03-23T03:59:05.220Z,291.30
2019-03-23T04:00:05.175Z,307.10
2019-03-23T04:01:05.167Z,302.40
2019-03-23T04:02:05.163Z,303.30
2019-03-23T04:03:05.167Z,300.50
2019-03-23T04:04:05.169Z,311.20
2019-03-23T04:05:05.148Z,307.00
2019-03-23T04:06:05.146Z,294.70
2019-03-23T04:07:05.138Z,299.00
2019-03-23T04:08:11.370Z,298.30
2019-03-23T04:09:05.119Z,293.40
2019-03-23T04:10:05.109Z,294.20
2019-03-23T04:11:05.096Z,303.10
2019-03-23T04:12:05.092Z,304.20
2019-03-23T04:13:05.096Z,284.60
2019-03-23T04:14:05.092Z,286.50
2019-03-23T04:15:05.077Z,301.90
2019-03-23T04:16:05.079Z,287.00
2019-03-23T04:17:05.077Z,284.90
2019-03-23T04:18:05.051Z,278.10
2019-03-23T04:19:05.060Z,280.10
2019-03-23T04:20:05.038Z,275.00
2019-03-23T04:21:05.029Z,275.80
2019-03-23T04:22:05.027Z,279.90
2019-03-23T04:23:05.036Z,271.40
2019-03-23T04:24:05.034Z,268.10
2019-03-23T04:25:05.010Z,274.40
2019-03-23T04:26:05.000Z,274.50
2019-03-23T04:27:05.030Z,282.20
2019-03-23T04:28:04.989Z,274.20
2019-03-23T04:29:05.013Z,292.30
2019-03-23T04:30:04.985Z,279.40
2019-03-23T04:31:04.982Z,277.20
2019-03-23T04:32:04.956Z,281.40
2019-03-23T04:33:04.957Z,285.00
2019-03-23T04:34:04.944Z,282.70
2019-03-23T04:35:04.956Z,280.30
2019-03-23T04:36:04.946Z,272.30
2019-03-23T04:37:04.928Z,278.00
2019-03-23T04:38:04.922Z,264.30
2019-03-23T04:39:04.914Z,273.20
2019-03-23T04:40:04.930Z,274.00
2019-03-23T04:41:04.903Z,274.70
2019-03-23T04:42:04.924Z,268.00
2019-03-23T04:43:04.883Z,267.50
2019-03-23T04:44:04.875Z,267.20
2019-03-23T04:45:04.895Z,266.00
2019-03-23T04:46:04.877Z,255.30
2019-03-23T04:47:04.885Z,239.80
2019-03-23T04:48:04.850Z,250.40
2019-03-23T04:49:04.864Z,248.20
2019-03-23T04:50:04.850Z,242.60
2019-03-23T04:51:04.840Z,251.40
2019-03-23T04:52:04.831Z,245.60
2019-03-23T04:53:04.819Z,249.00
2019-03-23T04:54:04.815Z,247.80
2019-03-23T04:55:04.807Z,237.40
2019-03-23T04:56:04.810Z,241.50
2019-03-23T04:57:04.803Z,245.70
2019-03-23T04:58:04.787Z,240.70
2019-03-23T04:59:04.785Z,253.20
2019-03-23T05:00:04.789Z,241.00
2019-03-23T05:01:04.770Z,223.90
2019-03-23T05:02:04.766Z,242.40
2019-03-23T05:03:04.761Z,236.90
2019-03-23T05:04:04.752Z,244.40
2019-03-23T05:05:04.743Z,247.50
2019-03-23T05:06:04.741Z,241.30
2019-03-23T05:07:04.754Z,241.90
2019-03-23T05:08:04.746Z,251.80
2019-03-23T05:09:04.725Z,240.00
2019-03-23T05:10:04.718Z,229.70
2019-03-23T05:11:04.721Z,241.40
2019-03-23T05:12:04.715Z,225.50
2019-03-23T05:13:04.691Z,234.80
2019-03-23T05:14:04.721Z,230.30
2019-03-23T05:15:04.699Z,237.50
2019-03-23T05:16:04.697Z,226.20
2019-03-23T05:17:04.667Z,224.60
2019-03-23T05:18:04.660Z,229.50
2019-03-23T05:19:04.666Z,233.80
2019-03-23T05:20:04.867Z,229.90
2019-03-23T05:21:04.852Z,231.30
2019-03-23T05:22:04.638Z,222.50
2019-03-23T05:23:04.636Z,225.10
2019-03-23T05:24:04.628Z,223.10
2019-03-23T05:25:04.624Z,216.20
2019-03-23T05:26:04.618Z,218.80
2019-03-23T05:27:04.607Z,208.80
2019-03-23T05:28:04.600Z,223.10
2019-03-23T05:29:04.611Z,216.80
2019-03-23T05:30:04.589Z,221.90
2019-03-23T05:31:07.009Z,230.90
2019-03-23T05:32:04.576Z,213.60
2019-03-23T05:33:04.573Z,226.70
2019-03-23T05:34:04.581Z,218.30
2019-03-23T05:35:04.556Z,205.60
2019-03-23T05:36:04.552Z,218.00
2019-03-23T05:37:04.565Z,225.30
2019-03-23T05:38:04.549Z,209.40
2019-03-23T05:39:04.540Z,211.90
2019-03-23T05:40:04.533Z,206.00
2019-03-23T05:41:04.531Z,208.20
2019-03-23T05:42:07.147Z,209.00
2019-03-23T05:43:04.510Z,210.20
2019-03-23T05:44:04.508Z,212.40
2019-03-23T05:45:04.519Z,202.80
2019-03-23T05:46:04.504Z,219.40
2019-03-23T05:47:04.492Z,208.20
2019-03-23T05:48:04.482Z,204.60
2019-03-23T05:49:04.473Z,199.80
2019-03-23T05:50:04.473Z,202.80
2019-03-23T05:51:04.463Z,208.50
2019-03-23T05:52:04.667Z,209.50
2019-03-23T05:53:04.470Z,206.40
2019-03-23T05:54:04.453Z,218.40
2019-03-23T05:55:04.645Z,205.70
2019-03-23T05:56:04.439Z,198.10
2019-03-23T05:57:04.632Z,206.50
2019-03-23T05:58:04.422Z,214.00
2019-03-23T05:59:04.419Z,206.00
2019-03-23T06:00:04.431Z,206.30
2019-03-23T06:01:04.418Z,202.90
2019-03-23T06:02:04.400Z,208.00
2019-03-23T06:03:04.614Z,202.70
2019-03-23T06:04:04.405Z,196.60
2019-03-23T06:05:04.393Z,204.40
2019-03-23T06:06:04.400Z,205.70
2019-03-23T06:07:04.398Z,208.90
2019-03-23T06:08:04.379Z,195.50
2019-03-23T06:09:04.373Z,202.90
2019-03-23T06:10:04.367Z,197.60
2019-03-23T06:11:04.356Z,208.80
2019-03-23T06:12:04.374Z,207.70
2019-03-23T06:13:04.343Z,193.20
2019-03-23T06:14:04.337Z,208.10
2019-03-23T06:15:04.328Z,194.50
2019-03-23T06:16:04.314Z,207.60
2019-03-23T06:17:04.327Z,191.40
2019-03-23T06:18:04.321Z,198.40
2019-03-23T06:19:04.300Z,203.50
2019-03-23T06:20:04.771Z,189.40
2019-03-23T06:21:04.299Z,188.40
2019-03-23T06:22:04.311Z,208.90
2019-03-23T06:23:04.285Z,200.10
2019-03-23T06:24:04.281Z,205.70
2019-03-23T06:25:04.270Z,192.20
2019-03-23T06:26:06.348Z,201.10
2019-03-23T06:27:04.261Z,201.40
2019-03-23T06:28:04.259Z,188.80
2019-03-23T06:29:04.256Z,202.80
2019-03-23T06:30:04.254Z,185.90
2019-03-23T06:31:04.281Z,196.10
2019-03-23T06:32:04.234Z,186.70
2019-03-23T06:33:04.259Z,198.10
2019-03-23T06:34:04.233Z,195.70
2019-03-23T06:35:04.236Z,204.90
2019-03-23T06:36:04.231Z,205.60
2019-03-23T06:37:04.197Z,209.70
2019-03-23T06:38:04.194Z,197.90
2019-03-23T06:39:05.674Z,205.60
2019-03-23T06:40:04.182Z,201.60
2019-03-23T06:41:04.181Z,195.90
2019-03-23T06:42:04.170Z,201.40
2019-03-23T06:43:04.170Z,202.40
2019-03-23T06:44:04.178Z,211.00
2019-03-23T06:45:04.157Z,194.50
2019-03-23T06:46:04.148Z,205.10
2019-03-23T06:47:04.146Z,189.80
2019-03-23T06:48:04.357Z,196.40
2019-03-23T06:49:04.156Z,185.10
2019-03-23T06:50:04.325Z,198.70
2019-03-23T06:51:04.156Z,193.40
2019-03-23T06:52:04.335Z,200.50
2019-03-23T06:53:04.110Z,201.30
2019-03-23T06:54:04.308Z,191.90
2019-03-23T06:55:04.098Z,177.60
2019-03-23T06:56:04.123Z,185.90
2019-03-23T06:57:04.301Z,186.30
2019-03-23T06:58:04.080Z,182.80
2019-03-23T06:59:04.278Z,182.60
2019-03-23T07:00:04.073Z,178.50
2019-03-23T07:01:04.088Z,177.50
2019-03-23T07:02:04.271Z,179.70
2019-03-23T07:03:04.075Z,177.70
2019-03-23T07:04:04.057Z,166.50
2019-03-23T07:05:04.038Z,168.20
2019-03-23T07:06:04.049Z,168.10
2019-03-23T07:07:04.023Z,164.90
2019-03-23T07:08:04.045Z,165.90
2019-03-23T07:09:04.026Z,164.20
2019-03-23T07:10:04.006Z,151.40
2019-03-23T07:11:03.998Z,151.90
2019-03-23T07:12:04.017Z,152.10
2019-03-23T07:13:04.006Z,153.90
2019-03-23T07:14:03.986Z,154.50
2019-03-23T07:15:03.977Z,157.30
2019-03-23T07:16:03.983Z,144.10
2019-03-23T07:17:03.997Z,140.30
2019-03-23T07:18:03.970Z,139.00
2019-03-23T07:19:04.156Z,149.10
2019-03-23T07:20:03.960Z,141.00
2019-03-23T07:21:03.947Z,138.60
2019-03-23T07:22:03.949Z,134.70
2019-03-23T07:23:03.955Z,127.10
2019-03-23T07:24:03.936Z,126.20
2019-03-23T07:25:04.125Z,134.90
2019-03-23T07:26:03.910Z,131.20
2019-03-23T07:27:03.910Z,126.80
2019-03-23T07:28:03.899Z,127.20
2019-03-23T07:29:03.977Z,130.20
2019-03-23T07:30:03.893Z,130.00
2019-03-23T07:31:03.897Z,126.40
2019-03-23T07:32:05.912Z,123.70
2019-03-23T07:33:03.908Z,125.20
2019-03-23T07:34:06.117Z,128.40
2019-03-23T07:35:03.889Z,125.20
2019-03-23T07:36:03.855Z,124.30
2019-03-23T07:37:03.845Z,131.10
2019-03-23T07:38:03.858Z,114.40
2019-03-23T07:39:03.838Z,120.50
2019-03-23T07:40:03.841Z,119.10
2019-03-23T07:41:03.835Z,125.30
2019-03-23T07:42:03.853Z,122.40
2019-03-23T07:43:03.822Z,117.90
2019-03-23T07:44:03.817Z,120.90
2019-03-23T07:45:03.799Z,124.80
2019-03-23T07:46:03.806Z,118.00
2019-03-23T07:47:03.821Z,121.40
2019-03-23T07:48:03.790Z,124.60
2019-03-23T07:49:03.800Z,122.30
2019-03-23T07:50:03.774Z,121.90
2019-03-23T07:51:03.771Z,114.30
2019-03-23T07:52:03.758Z,117.30
2019-03-23T07:53:03.760Z,112.50
2019-03-23T07:54:03.774Z,112.80
2019-03-23T07:55:03.772Z,118.50
2019-03-23T07:56:03.764Z,114.50
2019-03-23T07:57:03.752Z,114.50
2019-03-23T07:58:03.747Z,113.10
2019-03-23T07:59:03.760Z,113.80
2019-03-23T08:00:03.746Z,113.60
2019-03-23T08:01:03.727Z,109.00
2019-03-23T08:02:03.720Z,112.50
2019-03-23T08:03:03.715Z,111.40
2019-03-23T08:04:03.701Z,108.30
2019-03-23T08:05:03.695Z,114.40
2019-03-23T08:06:03.695Z,113.40
2019-03-23T08:07:03.680Z,108.70
2019-03-23T08:08:03.672Z,110.50
2019-03-23T08:09:03.664Z,112.50
2019-03-23T08:10:03.654Z,113.10
2019-03-23T08:11:03.660Z,108.80
2019-03-23T08:12:03.847Z,108.70
2019-03-23T08:13:03.654Z,104.20
2019-03-23T08:14:03.641Z,111.10
2019-03-23T08:15:03.630Z,107.80
2019-03-23T08:16:03.831Z,105.60
2019-03-23T08:17:03.618Z,107.20
2019-03-23T08:18:03.632Z,101.10
2019-03-23T08:19:03.631Z,105.50
2019-03-23T08:20:03.606Z,107.40
2019-03-23T08:21:03.592Z,105.00
2019-03-23T08:22:03.591Z,110.20
2019-03-23T08:23:03.805Z,107.30
2019-03-23T08:24:03.779Z,104.30
2019-03-23T08:25:03.571Z,104.90
2019-03-23T08:26:03.563Z,102.00
2019-03-23T08:27:03.560Z,103.80
2019-03-23T08:28:03.568Z,108.60
2019-03-23T08:29:03.572Z,101.50
2019-03-23T08:30:03.549Z,108.60
2019-03-23T08:31:03.536Z,105.90
2019-03-23T08:32:03.544Z,103.30
2019-03-23T08:33:03.533Z,107.20
2019-03-23T08:34:03.526Z,102.30
2019-03-23T08:35:03.517Z,99.30
2019-03-23T08:36:03.515Z,102.20
2019-03-23T08:37:03.505Z,99.80
2019-03-23T08:38:03.511Z,103.50
2019-03-23T08:39:03.499Z,99.70
2019-03-23T08:40:03.511Z,101.70
2019-03-23T08:41:03.490Z,99.20
2019-03-23T08:42:03.486Z,101.10
2019-03-23T08:43:03.484Z,101.10
2019-03-23T08:44:03.471Z,105.60
2019-03-23T08:45:03.472Z,97.50
2019-03-23T08:46:03.466Z,103.50
2019-03-23T08:47:03.461Z,103.50
2019-03-23T08:48:03.447Z,99.00
2019-03-23T08:49:03.449Z,99.40
2019-03-23T08:50:03.462Z,96.80
2019-03-23T08:51:03.443Z,90.30
2019-03-23T08:52:03.433Z,94.60
2019-03-23T08:53:03.432Z,93.90
2019-03-23T08:54:03.411Z,88.30
2019-03-23T08:55:03.408Z,89.00
2019-03-23T08:56:03.603Z,97.70
2019-03-23T08:57:03.405Z,98.10
2019-03-23T08:58:03.618Z,96.10
2019-03-23T08:59:03.403Z,97.20
2019-03-23T09:00:03.423Z,91.30
2019-03-23T09:01:03.380Z,85.40
2019-03-23T09:02:03.374Z,87.00
2019-03-23T09:03:03.824Z,91.40
2019-03-23T09:04:03.365Z,88.90
2019-03-23T09:05:03.368Z,89.20
2019-03-23T09:06:03.421Z,85.80
2019-03-23T09:07:03.468Z,84.60
2019-03-23T09:08:03.422Z,81.90
2019-03-23T09:09:03.386Z,81.80
2019-03-23T09:10:03.365Z,77.30
2019-03-23T09:11:03.396Z,79.10
2019-03-23T09:12:03.512Z,73.20
2019-03-23T09:13:03.347Z,78.10
2019-03-23T09:14:03.325Z,78.70
2019-03-23T09:15:03.346Z,81.70
2019-03-23T09:16:03.330Z,82.00
2019-03-23T09:17:03.305Z,77.70
2019-03-23T09:18:03.325Z,75.80
2019-03-23T09:19:03.301Z,83.30
2019-03-23T09:20:03.347Z,79.30
2019-03-23T09:21:03.345Z,79.50
2019-03-23T09:22:03.321Z,80.60
2019-03-23T09:23:03.311Z,80.40
2019-03-23T09:24:03.305Z,75.50
2019-03-23T09:25:03.314Z,74.60
2019-03-23T09:26:03.318Z,73.50
2019-03-23T09:27:03.307Z,75.20
2019-03-23T09:28:03.295Z,73.60
2019-03-23T09:29:03.258Z,73.60
2019-03-23T09:30:03.322Z,78.40
2019-03-23T09:31:03.307Z,71.00
2019-03-23T09:32:03.273Z,69.50
2019-03-23T09:33:03.236Z,72.50
2019-03-23T09:34:03.257Z,71.50
2019-03-23T09:35:03.366Z,74.00
2019-03-23T09:36:03.317Z,72.30
2019-03-23T09:37:03.232Z,73.30
2019-03-23T09:38:03.251Z,75.70
2019-03-23T09:39:03.234Z,74.20
2019-03-23T09:40:10.704Z,71.30
2019-03-23T09:41:03.217Z,75.90
2019-03-23T09:42:03.314Z,65.90
2019-03-23T09:43:03.179Z,71.00
2019-03-23T09:44:03.179Z,76.10
2019-03-23T09:45:03.202Z,72.40
2019-03-23T09:46:03.205Z,76.00
2019-03-23T09:47:03.190Z,71.80
2019-03-23T09:48:03.168Z,78.60
2019-03-23T09:49:03.199Z,80.60
2019-03-23T09:50:03.183Z,76.30
2019-03-23T09:51:03.152Z,74.90
2019-03-23T09:52:03.225Z,77.80
2019-03-23T09:53:03.154Z,77.10
2019-03-23T09:54:03.134Z,77.30
2019-03-23T09:55:03.134Z,77.00
2019-03-23T09:56:03.196Z,77.30
2019-03-23T09:57:03.205Z,77.50
2019-03-23T09:58:03.206Z,76.40
2019-03-23T09:59:03.297Z,72.50
2019-03-23T10:00:03.178Z,72.90
2019-03-23T10:01:03.104Z,71.40
2019-03-23T10:02:03.112Z,76.30
2019-03-23T10:03:03.116Z,72.30
2019-03-23T10:04:03.101Z,70.90
2019-03-23T10:05:03.062Z,81.00
2019-03-23T10:06:03.082Z,72.50
2019-03-23T10:07:03.090Z,74.30
2019-03-23T10:08:03.055Z,73.60
2019-03-23T10:09:03.053Z,73.10
2019-03-23T10:10:03.064Z,77.40
2019-03-23T10:11:03.034Z,74.30
2019-03-23T10:12:03.040Z,76.40
2019-03-23T10:13:03.015Z,76.40
2019-03-23T10:14:03.258Z,76.70
2019-03-23T10:15:03.022Z,73.20
2019-03-23T10:16:03.030Z,72.40
2019-03-23T10:17:03.017Z,74.50
2019-03-23T10:18:03.026Z,71.40
2019-03-23T10:19:02.997Z,79.10
2019-03-23T10:20:02.982Z,71.90
2019-03-23T10:21:02.982Z,73.00
2019-03-23T10:22:02.977Z,69.60
2019-03-23T10:23:02.992Z,72.00
2019-03-23T10:24:02.973Z,72.50
2019-03-23T10:25:02.992Z,71.20
2019-03-23T10:26:02.971Z,73.10
2019-03-23T10:27:02.967Z,71.90
2019-03-23T10:28:02.979Z,71.20
2019-03-23T10:29:02.977Z,75.30
2019-03-23T10:30:02.944Z,73.30
2019-03-23T10:31:02.948Z,72.80
2019-03-23T10:32:03.014Z,73.90
2019-03-23T10:33:02.991Z,75.50
2019-03-23T10:34:02.956Z,71.40
2019-03-23T10:35:02.972Z,75.10
2019-03-23T10:36:02.919Z,75.70
2019-03-23T10:37:02.956Z,73.80
2019-03-23T10:38:02.939Z,74.70
2019-03-23T10:39:02.900Z,74.00
2019-03-23T10:40:02.902Z,75.50
2019-03-23T10:41:02.894Z,71.30
2019-03-23T10:42:02.884Z,72.90
2019-03-23T10:43:02.895Z,72.20
2019-03-23T10:44:02.874Z,70.40
2019-03-23T10:45:02.860Z,71.20
2019-03-23T10:46:02.844Z,69.50
2019-03-23T10:47:02.852Z,67.30
2019-03-23T10:48:02.860Z,68.20
2019-03-23T10:49:02.853Z,68.80
2019-03-23T10:50:02.901Z,69.00
2019-03-23T10:51:02.836Z,68.50
2019-03-23T10:52:02.834Z,71.40
2019-03-23T10:53:02.853Z,71.90
2019-03-23T10:54:04.049Z,69.60
2019-03-23T10:55:02.832Z,71.70
2019-03-23T10:56:02.787Z,70.70
2019-03-23T10:57:02.789Z,72.80
2019-03-23T10:58:02.789Z,72.30
2019-03-23T10:59:02.796Z,71.30
2019-03-23T11:00:02.805Z,73.50
2019-03-23T11:01:02.777Z,72.80
2019-03-23T11:02:02.783Z,69.90
2019-03-23T11:03:02.774Z,69.30
2019-03-23T11:04:02.759Z,72.10
2019-03-23T11:05:02.799Z,73.10
2019-03-23T11:06:02.835Z,69.70
2019-03-23T11:07:02.770Z,74.40
2019-03-23T11:08:02.747Z,68.50
2019-03-23T11:09:02.746Z,69.20
2019-03-23T11:10:02.759Z,71.90
2019-03-23T11:11:02.734Z,66.50
2019-03-23T11:12:02.722Z,65.20
2019-03-23T11:13:02.704Z,72.20
2019-03-23T11:14:02.706Z,69.70
2019-03-23T11:15:02.702Z,73.60
2019-03-23T11:16:02.699Z,71.90
2019-03-23T11:17:02.690Z,80.20
2019-03-23T11:18:02.696Z,73.70
2019-03-23T11:19:02.705Z,72.80
2019-03-23T11:20:02.698Z,72.00
2019-03-23T11:21:02.684Z,73.40
2019-03-23T11:22:02.659Z,68.30
2019-03-23T11:23:02.665Z,75.40
2019-03-23T11:24:02.681Z,71.60
2019-03-23T11:25:02.660Z,74.70
2019-03-23T11:26:02.643Z,72.00
2019-03-23T11:27:02.634Z,69.20
2019-03-23T11:28:02.646Z,72.00
2019-03-23T11:29:02.642Z,78.50
2019-03-23T11:30:02.647Z,72.00
2019-03-23T11:31:02.642Z,73.20
2019-03-23T11:32:02.637Z,73.70
2019-03-23T11:33:02.675Z,73.50
2019-03-23T11:34:02.631Z,67.50
2019-03-23T11:35:02.715Z,71.00
2019-03-23T11:36:02.611Z,70.00
2019-03-23T11:37:02.601Z,71.50
2019-03-23T11:38:02.688Z,72.10
2019-03-23T11:39:02.589Z,75.70
2019-03-23T11:40:02.598Z,80.30
2019-03-23T11:41:02.586Z,79.20
2019-03-23T11:42:02.578Z,80.80
2019-03-23T11:43:02.588Z,75.10
2019-03-23T11:44:02.584Z,79.80
2019-03-23T11:45:02.563Z,80.40
2019-03-23T11:46:02.558Z,82.10
2019-03-23T11:47:02.581Z,79.20
2019-03-23T11:48:02.581Z,79.20
2019-03-23T11:49:02.583Z,79.00
2019-03-23T11:50:02.641Z,81.20
2019-03-23T11:51:02.545Z,81.70
2019-03-23T11:52:02.527Z,80.60
2019-03-23T11:53:02.518Z,77.20
2019-03-23T11:54:02.720Z,78.10
2019-03-23T11:55:02.513Z,75.30
2019-03-23T11:56:02.722Z,81.40
2019-03-23T11:57:02.502Z,75.80
2019-03-23T11:58:02.494Z,76.20
2019-03-23T11:59:02.488Z,78.90
2019-03-23T12:00:02.488Z,77.60
2019-03-23T12:01:02.487Z,75.60
2019-03-23T12:02:02.492Z,78.60
2019-03-23T12:03:02.693Z,77.80
2019-03-23T12:04:02.481Z,77.30
2019-03-23T12:05:02.464Z,75.70
2019-03-23T12:06:02.460Z,79.00
2019-03-23T12:07:02.677Z,75.80
2019-03-23T12:08:02.469Z,76.00
2019-03-23T12:09:02.446Z,75.40
2019-03-23T12:10:02.658Z,75.20
2019-03-23T12:11:03.244Z,77.50
2019-03-23T12:12:02.449Z,79.50
2019-03-23T12:13:02.429Z,78.40
2019-03-23T12:14:02.426Z,73.70
2019-03-23T12:15:02.426Z,72.30
2019-03-23T12:16:02.422Z,74.90
2019-03-23T12:17:02.436Z,76.40
2019-03-23T12:18:02.625Z,75.80
2019-03-23T12:19:02.613Z,75.50
2019-03-23T12:20:02.397Z,73.20
2019-03-23T12:21:02.407Z,74.20
2019-03-23T12:22:02.401Z,72.40
2019-03-23T12:23:02.415Z,70.00
2019-03-23T12:24:02.388Z,71.20
2019-03-23T12:25:02.382Z,72.30
2019-03-23T12:26:02.580Z,74.90
2019-03-23T12:27:02.369Z,69.70
2019-03-23T12:28:02.398Z,69.50
2019-03-23T12:29:02.567Z,71.70
2019-03-23T12:30:06.965Z,71.00
2019-03-23T12:31:02.358Z,70.70
2019-03-23T12:32:02.352Z,70.30
2019-03-23T12:33:02.346Z,72.50
2019-03-23T12:34:02.346Z,71.40
2019-03-23T12:35:02.351Z,74.00
2019-03-23T12:36:02.335Z,70.40
2019-03-23T12:37:02.330Z,73.30
2019-03-23T12:38:02.336Z,69.70
2019-03-23T12:39:02.325Z,73.40
2019-03-23T12:40:02.315Z,72.80
2019-03-23T12:41:11.216Z,72.00
2019-03-23T12:42:02.312Z,70.20